Time;durP1;ratioP1;P1;durP2;ratioP2;P2;SDS_P1;SDS_P2;PMS_P1;PMS_P2;Temp;Humidity;BMP_temperature;BMP_pressure;BME280_temperature;BME280_humidity;BME280_pressure;Samples;Min_cycle;Max_cycle;Signal;HPM_P1;HPM_P2
2022/03/30 00:01:09;;;;;;;68.00;42.10;;;;;;;3.13;69.08;99043.78;107290;1270;108989;-73
2022/03/30 00:03:42;;;;;;;72.40;41.30;;;;;;;3.10;69.24;99047.96;106184;1270;138624;-73
2022/03/30 00:06:14;;;;;;;75.90;40.90;;;;;;;3.15;69.62;99046.48;106264;1270;96432;-72
2022/03/30 00:08:46;;;;;;;68.00;40.40;;;;;;;3.23;69.69;99041.14;106134;1270;137845;-73
2022/03/30 00:11:18;;;;;;;70.30;39.30;;;;;;;3.26;69.49;99046.42;106176;1270;108947;-73
2022/03/30 00:13:50;;;;;;;71.40;38.90;;;;;;;3.29;69.79;99039.48;106118;1270;138762;-72
2022/03/30 00:16:23;;;;;;;73.30;40.60;;;;;;;3.39;69.81;99042.85;106295;1270;97205;-73
2022/03/30 00:18:56;;;;;;;68.00;40.60;;;;;;;3.49;69.72;99040.91;107863;1270;94711;-73
2022/03/30 00:21:27;;;;;;;69.80;41.40;;;;;;;3.52;69.57;99035.86;107747;1270;137224;-73
2022/03/30 00:23:59;;;;;;;73.50;41.90;;;;;;;3.52;69.46;99038.42;107823;1271;108764;-73
2022/03/30 00:26:31;;;;;;;78.10;44.20;;;;;;;3.46;69.37;99038.08;106375;1270;138486;-74
2022/03/30 00:29:04;;;;;;;75.30;43.90;;;;;;;3.42;69.52;99038.52;107795;1270;94737;-73
2022/03/30 00:31:36;;;;;;;75.30;40.90;;;;;;;3.41;69.72;99036.13;107403;1270;94384;-73
2022/03/30 00:34:09;;;;;;;70.80;42.20;;;;;;;3.39;69.62;99042.00;106169;1270;137864;-73
2022/03/30 00:36:41;;;;;;;70.70;40.50;;;;;;;3.36;69.72;99041.71;106269;1270;108458;-72
2022/03/30 00:39:13;;;;;;;76.20;41.70;;;;;;;3.37;69.74;99037.77;106138;1270;138060;-74
2022/03/30 00:41:45;;;;;;;71.00;40.70;;;;;;;3.36;69.90;99029.52;106245;1270;96481;-73
2022/03/30 00:44:18;;;;;;;68.30;39.50;;;;;;;3.34;69.80;99033.34;106181;1270;138331;-72
2022/03/30 00:46:55;;;;;;;73.00;39.90;;;;;;;3.32;69.90;99029.79;106223;1270;110971;-74
2022/03/30 00:49:27;;;;;;;74.40;41.90;;;;;;;3.36;70.16;99029.19;106230;1270;109208;-73
2022/03/30 00:51:59;;;;;;;71.30;39.50;;;;;;;3.39;70.17;99027.92;106176;1271;138001;-74
2022/03/30 00:54:31;;;;;;;68.00;39.70;;;;;;;3.46;70.21;99028.62;106269;1270;96480;-75
2022/03/30 00:57:04;;;;;;;63.80;39.80;;;;;;;3.49;70.12;99024.60;106174;1270;138555;-75
2022/03/30 00:59:36;;;;;;;72.40;40.20;;;;;;;3.48;69.96;99027.20;107817;1271;111043;-73
2022/03/30 01:02:09;;;;;;;73.20;42.00;;;;;;;3.43;70.05;99025.60;107189;1270;137658;-73
2022/03/30 01:04:41;;;;;;;71.70;41.50;;;;;;;3.39;69.91;99024.98;106346;1270;108783;-73
2022/03/30 01:07:14;;;;;;;72.80;42.70;;;;;;;3.37;70.17;99025.90;106360;1270;96741;-73
2022/03/30 01:09:46;;;;;;;68.70;40.90;;;;;;;3.31;70.21;99028.77;106161;1270;137148;-73
2022/03/30 01:12:19;;;;;;;70.20;41.40;;;;;;;3.23;70.28;99027.92;106320;1270;110234;-74
2022/03/30 01:14:52;;;;;;;70.60;40.70;;;;;;;3.23;70.45;99028.45;106130;1271;138091;-73
2022/03/30 01:17:24;;;;;;;69.90;41.40;;;;;;;3.24;70.50;99029.13;107806;1270;106769;-74
2022/03/30 01:19:56;;;;;;;72.20;39.60;;;;;;;3.26;70.68;99028.91;106786;1267;138556;-74
2022/03/30 01:22:28;;;;;;;68.70;41.80;;;;;;;3.22;70.46;99027.95;106338;1270;96488;-73
2022/03/30 01:25:00;;;;;;;73.00;41.30;;;;;;;3.18;70.48;99021.34;106259;1270;108759;-73
2022/03/30 01:27:33;;;;;;;72.30;42.50;;;;;;;3.16;70.73;99019.48;106160;1270;138056;-73
2022/03/30 01:33:05;;;;;;;68.90;40.10;;;;;;;3.18;70.82;99010.16;107715;1270;138026;-73
2022/03/30 01:35:38;;;;;;;76.00;42.60;;;;;;;3.17;70.84;99009.16;107845;1270;94803;-73
2022/03/30 01:38:11;;;;;;;74.30;43.00;;;;;;;3.14;70.84;99008.22;107336;1270;138068;-72
2022/03/30 01:40:43;;;;;;;74.40;42.10;;;;;;;3.12;71.00;99006.89;107833;1270;107714;-73
2022/03/30 01:43:15;;;;;;;73.90;41.80;;;;;;;3.11;70.92;99006.23;107789;1270;107732;-73
2022/03/30 01:45:47;;;;;;;69.40;42.00;;;;;;;3.11;71.08;99001.93;106871;1268;138141;-73
2022/03/30 01:48:19;;;;;;;79.90;42.60;;;;;;;3.10;71.05;98996.29;107826;1270;95006;-73
2022/03/30 01:50:51;;;;;;;66.90;41.00;;;;;;;3.10;71.16;98990.95;106957;1270;137865;-72
2022/03/30 01:53:24;;;;;;;72.80;41.30;;;;;;;3.11;71.17;98992.99;106289;1270;109018;-72
2022/03/30 01:55:56;;;;;;;70.40;41.40;;;;;;;3.09;71.06;98991.51;106185;1270;138304;-72
2022/03/30 01:58:28;;;;;;;69.60;41.50;;;;;;;3.06;71.10;98988.64;106282;1270;96456;-72
2022/03/30 02:01:03;;;;;;;74.40;43.40;;;;;;;3.06;71.31;98981.08;106186;1270;96501;-71
2022/03/30 02:03:35;;;;;;;72.00;41.30;;;;;;;3.07;71.19;98980.89;106150;1270;138191;-72
2022/03/30 02:06:08;;;;;;;70.10;41.30;;;;;;;3.11;71.36;98978.90;106236;1270;108900;-72
2022/03/30 02:08:40;;;;;;;75.50;41.50;;;;;;;3.13;71.22;98971.98;106197;1270;138131;-72
2022/03/30 02:11:11;;;;;;;71.70;42.20;;;;;;;3.13;71.24;98975.95;106209;1270;96480;-73
2022/03/30 02:13:43;;;;;;;75.10;42.50;;;;;;;3.11;71.29;98970.50;106269;1270;96495;-73
2022/03/30 02:16:16;;;;;;;74.10;41.40;;;;;;;3.07;71.25;98965.77;106140;1270;138826;-73
2022/03/30 02:18:48;;;;;;;70.60;41.30;;;;;;;3.03;71.24;98963.09;106283;1270;107083;-73
2022/03/30 02:21:20;;;;;;;71.00;41.00;;;;;;;2.99;71.23;98957.69;106140;1270;139474;-72
2022/03/30 02:23:53;;;;;;;73.20;42.40;;;;;;;2.95;71.42;98955.23;106268;1268;96516;-73
2022/03/30 02:26:27;;;;;;;75.40;41.70;;;;;;;2.90;71.48;98956.52;106133;1270;138367;-73
2022/03/30 02:28:59;;;;;;;67.90;40.40;;;;;;;2.88;71.41;98962.23;106260;1270;110290;-73
2022/03/30 02:31:32;;;;;;;77.50;43.60;;;;;;;2.84;71.51;98957.67;106260;1270;108848;-72
2022/03/30 02:34:04;;;;;;;75.60;42.90;;;;;;;2.83;71.59;98952.20;106203;1270;138063;-74
2022/03/30 02:36:36;;;;;;;74.40;42.70;;;;;;;2.88;71.69;98947.48;106276;1270;96520;-74
2022/03/30 02:39:08;;;;;;;70.90;41.00;;;;;;;2.87;71.63;98950.58;106422;1270;138290;-74
2022/03/30 02:41:40;;;;;;;74.80;43.00;;;;;;;2.87;71.69;98947.33;106377;1270;111096;-74
2022/03/30 02:44:13;;;;;;;73.90;43.80;;;;;;;2.88;71.78;98944.21;106179;1270;138165;-74
2022/03/30 02:46:45;;;;;;;73.40;42.70;;;;;;;2.85;71.70;98941.16;106232;1270;109220;-74
2022/03/30 02:49:17;;;;;;;81.80;44.50;;;;;;;2.83;71.75;98935.05;106395;1271;96514;-74
2022/03/30 02:51:49;;;;;;;71.20;42.90;;;;;;;2.86;71.76;98936.36;106205;1269;138316;-75
2022/03/30 02:54:21;;;;;;;72.60;43.40;;;;;;;2.85;71.74;98937.73;106334;1269;111181;-73
2022/03/30 02:56:54;;;;;;;74.90;41.60;;;;;;;2.84;71.67;98943.27;106146;1270;138036;-73
2022/03/30 02:59:26;;;;;;;73.70;43.20;;;;;;;2.82;71.77;98937.64;106298;1270;108838;-74
2022/03/30 03:01:59;;;;;;;77.20;42.70;;;;;;;2.84;71.83;98940.17;106133;1270;138279;-73
2022/03/30 03:04:39;;;;;;;75.20;43.90;;;;;;;2.82;71.64;98935.75;106276;1270;96581;-74
2022/03/30 03:07:11;;;;;;;79.10;42.40;;;;;;;2.80;71.70;98936.33;107861;1270;110643;-73
2022/03/30 03:09:43;;;;;;;73.00;40.80;;;;;;;2.78;71.81;98935.50;106925;1270;137891;-74
2022/03/30 03:12:15;;;;;;;75.30;42.60;;;;;;;2.72;71.78;98940.44;106439;1270;108160;-73
2022/03/30 03:14:47;;;;;;;75.10;43.00;;;;;;;2.70;71.79;98941.35;106198;1270;138145;-72
2022/03/30 03:17:19;;;;;;;71.90;42.30;;;;;;;2.71;71.91;98941.50;106281;1270;96917;-73
2022/03/30 03:19:51;;;;;;;74.50;43.10;;;;;;;2.75;71.88;98944.16;106277;1270;110051;-73
2022/03/30 03:22:22;;;;;;;73.10;43.80;;;;;;;2.75;71.79;98930.42;106146;1270;137969;-74
2022/03/30 03:24:55;;;;;;;79.20;43.60;;;;;;;2.77;71.90;98931.94;106285;1270;108267;-74
2022/03/30 03:27:28;;;;;;;78.60;43.30;;;;;;;2.75;71.79;98926.64;106221;1269;138061;-73
2022/03/30 03:30:01;;;;;;;79.60;43.70;;;;;;;2.72;71.74;98926.88;106372;1270;96349;-73
2022/03/30 03:32:33;;;;;;;71.40;43.00;;;;;;;2.71;71.89;98929.66;106078;1270;138051;-73
2022/03/30 03:35:07;;;;;;;75.10;42.30;;;;;;;2.70;71.86;98932.08;106279;1270;108423;-73
2022/03/30 03:37:40;;;;;;;71.60;42.20;;;;;;;2.66;71.84;98939.02;106373;1269;107731;-74
2022/03/30 03:40:13;;;;;;;73.60;43.30;;;;;;;2.62;71.95;98938.25;106137;1270;138223;-72
2022/03/30 03:42:46;;;;;;;77.00;44.60;;;;;;;2.57;72.04;98934.77;107804;1270;94586;-73
2022/03/30 03:45:18;;;;;;;79.50;46.50;;;;;;;2.53;72.20;98936.05;107695;1270;137836;-74
2022/03/30 03:47:51;;;;;;;74.90;43.80;;;;;;;2.48;72.44;98934.42;107839;1270;108847;-73
2022/03/30 03:50:23;;;;;;;76.70;43.90;;;;;;;2.41;72.48;98934.23;107740;1269;138641;-73
2022/03/30 03:52:55;;;;;;;75.40;44.60;;;;;;;2.37;72.65;98930.70;107125;1270;96473;-72
2022/03/30 03:55:28;;;;;;;78.40;45.90;;;;;;;2.34;72.85;98929.91;106363;1270;96546;-73
2022/03/30 03:58:00;;;;;;;79.30;44.00;;;;;;;2.31;72.81;98923.77;107423;1269;139710;-74
2022/03/30 04:00:33;;;;;;;81.90;45.60;;;;;;;2.28;72.99;98920.59;106264;1270;108837;-74
2022/03/30 04:03:05;;;;;;;78.70;46.30;;;;;;;2.28;72.96;98919.05;106227;1270;139587;-74
2022/03/30 04:05:38;;;;;;;80.60;44.80;;;;;;;2.25;73.14;98922.01;106276;1270;96496;-73
2022/03/30 04:08:11;;;;;;;80.00;44.00;;;;;;;2.19;73.39;98921.80;106244;1270;138244;-74
2022/03/30 04:10:45;;;;;;;85.80;46.10;;;;;;;2.13;73.24;98924.98;106243;1271;111240;-74
2022/03/30 04:13:17;;;;;;;78.30;43.50;;;;;;;2.08;73.49;98929.54;106265;1270;108377;-74
2022/03/30 04:15:49;;;;;;;78.90;44.10;;;;;;;2.03;73.66;98928.96;106096;1270;138106;-74
2022/03/30 04:18:24;;;;;;;78.40;45.60;;;;;;;1.98;73.62;98927.17;106321;1270;96513;-74
2022/03/30 04:20:57;;;;;;;80.90;44.60;;;;;;;1.96;73.92;98927.35;106145;1270;137883;-74
2022/03/30 04:23:29;;;;;;;78.70;45.40;;;;;;;1.96;74.19;98929.42;106259;1270;111151;-74
2022/03/30 04:26:01;;;;;;;78.40;45.40;;;;;;;1.92;73.84;98930.36;106107;1270;138202;-73
2022/03/30 04:28:35;;;;;;;78.40;46.40;;;;;;;1.92;73.83;98927.10;106242;1270;109221;-73
2022/03/30 04:31:07;;;;;;;76.20;44.00;;;;;;;1.93;73.89;98931.19;106261;1270;96496;-74
2022/03/30 04:33:40;;;;;;;78.70;43.50;;;;;;;1.94;73.95;98932.39;106170;1269;138351;-73
2022/03/30 04:36:12;;;;;;;80.30;44.90;;;;;;;1.93;74.24;98928.10;106265;1271;111314;-74
2022/03/30 04:38:44;;;;;;;85.90;46.20;;;;;;;1.93;74.20;98930.67;106137;1270;138245;-74
2022/03/30 04:41:16;;;;;;;74.60;43.60;;;;;;;1.93;74.09;98928.27;106297;1270;108527;-73
2022/03/30 04:43:48;;;;;;;76.30;43.90;;;;;;;1.95;74.11;98931.49;106286;1270;96501;-73
2022/03/30 04:46:20;;;;;;;80.70;45.00;;;;;;;1.98;74.05;98932.48;106163;1270;137848;-73
2022/03/30 04:48:53;;;;;;;78.70;44.80;;;;;;;2.02;74.25;98933.60;106266;1270;111225;-74
2022/03/30 04:51:24;;;;;;;84.90;45.50;;;;;;;2.09;74.21;98936.38;106243;1270;138020;-73
2022/03/30 04:53:57;;;;;;;78.60;45.00;;;;;;;2.20;73.93;98934.30;106307;1270;108007;-73
2022/03/30 04:56:29;;;;;;;74.80;45.20;;;;;;;2.34;73.80;98929.91;106635;1270;138213;-75
2022/03/30 04:59:01;;;;;;;80.90;45.20;;;;;;;2.48;73.36;98926.01;106236;1270;96479;-73
2022/03/30 05:01:33;;;;;;;77.70;45.00;;;;;;;2.66;73.21;98927.88;106281;1270;110916;-74
2022/03/30 05:04:07;;;;;;;73.20;44.80;;;;;;;2.86;72.80;98926.39;106167;1270;138047;-73
2022/03/30 05:06:39;;;;;;;77.50;43.40;;;;;;;2.96;72.38;98928.58;107805;1270;108849;-74
2022/03/30 05:09:11;;;;;;;75.20;44.40;;;;;;;3.10;72.06;98927.23;107775;1270;138650;-75
2022/03/30 05:11:43;;;;;;;75.20;44.00;;;;;;;3.32;71.65;98927.74;107467;1270;96485;-73
2022/03/30 05:14:15;;;;;;;78.50;43.50;;;;;;;3.60;71.59;98928.25;106223;1270;138702;-74
2022/03/30 05:16:47;;;;;;;71.90;42.70;;;;;;;3.99;71.20;98930.00;106237;1270;108580;-74
2022/03/30 05:19:19;;;;;;;70.50;43.40;;;;;;;4.59;70.52;98930.39;106251;1270;110899;-74
2022/03/30 05:21:52;;;;;;;71.80;42.10;;;;;;;5.33;69.23;98934.16;106162;1270;138325;-71
2022/03/30 05:24:24;;;;;;;69.50;42.30;;;;;;;6.01;68.24;98932.77;106288;1271;96490;-74
2022/03/30 05:26:55;;;;;;;70.70;43.70;;;;;;;6.79;66.87;98927.56;106148;1270;137134;-74
2022/03/30 05:29:27;;;;;;;67.20;42.70;;;;;;;7.33;65.53;98928.05;106289;1270;108256;-73
2022/03/30 05:31:59;;;;;;;74.10;43.80;;;;;;;8.13;64.59;98929.39;106187;1270;138927;-69
2022/03/30 05:34:44;;;;;;;62.20;42.80;;;;;;;8.90;62.81;98925.95;106350;1270;96462;-74
2022/03/30 05:37:17;;;;;;;66.60;42.50;;;;;;;9.38;61.12;98930.98;106393;1270;96491;-74
2022/03/30 05:39:50;;;;;;;67.10;43.00;;;;;;;9.77;59.93;98934.10;106227;1271;138315;-74
2022/03/30 05:42:22;;;;;;;59.50;42.30;;;;;;;9.86;58.54;98936.92;106561;1270;108204;-74
2022/03/30 05:44:54;;;;;;;65.90;43.10;;;;;;;9.84;58.10;98936.30;106213;1270;137623;-73
2022/03/30 05:47:28;;;;;;;65.70;42.70;;;;;;;10.18;57.97;98932.38;106282;1270;96570;-74
2022/03/30 05:50:00;;;;;;;61.60;41.40;;;;;;;10.78;57.20;98932.50;106247;1272;137865;-72
2022/03/30 05:52:32;;;;;;;64.70;42.60;;;;;;;11.24;55.76;98934.65;106217;1270;111178;-74
2022/03/30 05:55:05;;;;;;;59.70;41.50;;;;;;;11.63;55.01;98936.63;106274;1270;108623;-73
2022/03/30 05:57:37;;;;;;;62.50;40.50;;;;;;;11.99;53.85;98936.30;107676;1270;137711;-74
2022/03/30 06:00:12;;;;;;;55.80;40.00;;;;;;;12.31;52.43;98932.34;107881;1270;94872;-74
2022/03/30 06:02:46;;;;;;;65.60;41.10;;;;;;;12.64;52.04;98928.21;107764;1270;137385;-74
2022/03/30 06:05:19;;;;;;;58.20;41.80;;;;;;;13.14;51.33;98924.73;107846;1270;110071;-75
2022/03/30 06:07:50;;;;;;;61.30;41.20;;;;;;;13.73;50.59;98923.03;107848;1270;107598;-74
2022/03/30 06:10:23;;;;;;;58.50;40.80;;;;;;;14.41;49.31;98918.27;107729;1270;138252;-75
2022/03/30 06:12:55;;;;;;;57.60;40.60;;;;;;;14.96;48.01;98915.98;106398;1270;96479;-74
2022/03/30 06:15:28;;;;;;;54.90;39.10;;;;;;;15.34;47.08;98917.05;107136;1269;137502;-74
2022/03/30 06:18:00;;;;;;;54.50;40.40;;;;;;;15.80;46.12;98911.27;107313;1271;110136;-73
2022/03/30 06:20:32;;;;;;;56.50;40.70;;;;;;;16.32;44.79;98910.58;106456;1270;137926;-74
2022/03/30 06:23:04;;;;;;;52.80;39.00;;;;;;;16.78;44.06;98906.17;107799;1270;108668;-75
2022/03/30 06:25:36;;;;;;;52.20;38.20;;;;;;;17.32;43.10;98908.00;107843;1270;95025;-75
2022/03/30 06:28:09;;;;;;;51.60;38.20;;;;;;;17.71;42.09;98907.91;107481;1269;138043;-74
2022/03/30 06:30:42;;;;;;;50.80;38.00;;;;;;;17.97;41.01;98907.55;106579;1270;111132;-73
2022/03/30 06:33:14;;;;;;;48.70;37.50;;;;;;;18.28;40.61;98904.19;106921;1270;139617;-73
2022/03/30 06:35:46;;;;;;;46.60;37.30;;;;;;;18.76;39.77;98901.67;107521;1270;108669;-73
2022/03/30 06:38:19;;;;;;;54.40;36.60;;;;;;;19.15;39.09;98904.19;106099;1270;138728;-72
2022/03/30 06:40:51;;;;;;;48.40;36.30;;;;;;;19.56;38.41;98902.29;106266;1269;96486;-73
2022/03/30 06:43:22;;;;;;;53.90;37.20;;;;;;;20.16;37.27;98904.35;106217;1270;109585;-72
2022/03/30 06:45:54;;;;;;;47.10;36.50;;;;;;;20.74;36.59;98900.88;106181;1270;136745;-74
2022/03/30 06:48:27;;;;;;;52.20;37.90;;;;;;;21.34;36.17;98910.04;106310;1270;108974;-73
2022/03/30 06:50:59;;;;;;;47.80;36.20;;;;;;;22.03;34.90;98908.56;106727;1271;138291;-73
2022/03/30 06:53:30;;;;;;;47.30;35.80;;;;;;;22.34;33.52;98906.48;107814;1270;94786;-73
2022/03/30 06:56:03;;;;;;;46.90;35.50;;;;;;;22.63;33.30;98905.23;107735;1270;138058;-72
2022/03/30 06:58:35;;;;;;;48.40;36.50;;;;;;;23.08;32.68;98902.69;107813;1270;108920;-76
2022/03/30 07:01:07;;;;;;;43.30;33.60;;;;;;;23.77;32.11;98904.37;107031;1270;107582;-73
2022/03/30 07:03:39;;;;;;;50.70;34.20;;;;;;;24.04;30.82;98902.41;106090;1270;138376;-72
2022/03/30 07:06:11;;;;;;;43.90;31.30;;;;;;;24.12;30.30;98903.20;106283;1270;96501;-73
2022/03/30 07:11:34;;;;;;;39.70;32.70;;;;;;;25.11;29.53;98903.33;106236;1270;108097;-73
2022/03/30 07:14:06;;;;;;;41.80;33.50;;;;;;;25.54;29.06;98905.31;106069;1271;138048;-72
2022/03/30 07:16:38;;;;;;;37.00;30.90;;;;;;;26.09;28.45;98912.78;106201;1270;96495;-73
2022/03/30 07:19:10;;;;;;;38.00;31.50;;;;;;;26.68;27.88;98907.04;106281;1270;96477;-74
2022/03/30 07:21:42;;;;;;;40.40;30.40;;;;;;;27.01;27.12;98912.96;106162;1270;137843;-74
2022/03/30 07:24:13;;;;;;;38.20;28.70;;;;;;;27.51;26.50;98913.06;106231;1270;109033;-74
2022/03/30 07:26:46;;;;;;;33.30;27.10;;;;;;;27.84;25.82;98910.61;106140;1270;139702;-72
2022/03/30 07:29:17;;;;;;;40.50;29.30;;;;;;;28.21;25.43;98911.80;106236;1270;96496;-73
2022/03/30 07:31:49;;;;;;;36.90;24.10;;;;;;;28.66;25.32;98909.77;106295;1270;96611;-73
2022/03/30 07:34:21;;;;;;;33.60;24.00;;;;;;;29.16;24.36;98909.66;106095;1270;138274;-72
2022/03/30 07:36:53;;;;;;;31.40;21.80;;;;;;;29.25;23.56;98910.02;106323;1270;109541;-72
2022/03/30 07:39:25;;;;;;;28.10;19.70;;;;;;;29.37;23.40;98912.25;106171;1270;138180;-73
2022/03/30 07:41:57;;;;;;;24.20;17.30;;;;;;;29.25;22.53;98914.34;106307;1270;96521;-73
2022/03/30 07:44:29;;;;;;;23.90;16.70;;;;;;;28.94;22.11;98915.84;106145;1270;137657;-74
2022/03/30 07:47:04;;;;;;;23.30;15.30;;;;;;;28.76;22.04;98915.16;106224;1269;110954;-73
2022/03/30 07:49:37;;;;;;;23.20;17.10;;;;;;;28.69;21.61;98917.25;106284;1270;108983;-74
2022/03/30 07:52:09;;;;;;;23.80;14.80;;;;;;;28.79;21.44;98913.73;106233;1270;139092;-72
2022/03/30 07:54:42;;;;;;;19.90;13.00;;;;;;;28.80;20.58;98911.17;106288;1270;97124;-72
2022/03/30 07:57:14;;;;;;;19.40;12.50;;;;;;;28.42;20.32;98913.08;106234;1270;137756;-71
2022/03/30 07:59:46;;;;;;;17.40;11.60;;;;;;;27.94;20.41;98911.70;106260;1270;110683;-72
2022/03/30 08:02:18;;;;;;;19.20;12.20;;;;;;;27.60;20.17;98918.03;106178;1270;138032;-72
2022/03/30 08:04:51;;;;;;;19.10;13.00;;;;;;;27.53;20.24;98920.91;106205;1270;108932;-73
2022/03/30 08:07:26;;;;;;;18.40;12.10;;;;;;;27.68;20.47;98922.78;106334;1270;96612;-72
2022/03/30 08:09:58;;;;;;;20.80;12.70;;;;;;;27.79;20.03;98929.11;106108;1270;137664;-73
2022/03/30 08:12:30;;;;;;;18.20;10.80;;;;;;;27.95;20.00;98924.39;107224;1269;110563;-72
2022/03/30 08:15:02;;;;;;;19.10;11.30;;;;;;;28.17;19.99;98929.76;106221;1269;137773;-72
2022/03/30 08:17:34;;;;;;;18.00;10.10;;;;;;;28.20;19.59;98929.40;106163;1270;108894;-71
2022/03/30 08:20:08;;;;;;;17.60;10.20;;;;;;;28.27;19.46;98926.05;106095;1270;138295;-73
2022/03/30 08:22:40;;;;;;;19.00;9.90;;;;;;;28.16;19.37;98926.02;107777;1270;94723;-72
2022/03/30 08:25:12;;;;;;;17.10;10.40;;;;;;;28.01;19.37;98933.48;107752;1270;111337;-73
2022/03/30 08:27:46;;;;;;;20.10;10.90;;;;;;;28.07;19.54;98933.41;107632;1270;138612;-73
2022/03/30 08:30:19;;;;;;;16.60;11.10;;;;;;;28.37;19.27;98931.63;106446;1270;109188;-73
2022/03/30 08:32:51;;;;;;;21.10;11.20;;;;;;;28.42;18.99;98932.77;107718;1269;138098;-73
2022/03/30 08:35:23;;;;;;;20.00;10.40;;;;;;;28.37;18.83;98930.71;107718;1271;94816;-74
2022/03/30 08:37:55;;;;;;;13.70;9.20;;;;;;;28.49;18.87;98925.05;107730;1270;109748;-74
2022/03/30 08:40:27;;;;;;;18.40;9.90;;;;;;;28.37;18.51;98920.16;107719;1269;137368;-74
2022/03/30 08:42:59;;;;;;;19.40;10.40;;;;;;;28.27;18.78;98922.75;106521;1270;107737;-74
2022/03/30 08:45:31;;;;;;;16.00;9.50;;;;;;;28.11;18.69;98926.06;106123;1270;137827;-75
2022/03/30 08:48:05;;;;;;;17.80;9.60;;;;;;;27.60;18.64;98920.30;106262;1270;96467;-72
2022/03/30 08:50:38;;;;;;;13.40;8.60;;;;;;;27.15;18.99;98920.44;106202;1270;137538;-73
2022/03/30 08:53:09;;;;;;;19.40;8.40;;;;;;;27.08;19.20;98921.05;106193;1270;108860;-73
2022/03/30 08:55:42;;;;;;;14.70;7.90;;;;;;;26.87;18.60;98921.77;106259;1270;108646;-74
2022/03/30 08:58:15;;;;;;;17.40;8.30;;;;;;;26.59;18.82;98926.08;106129;1270;137484;-74
2022/03/30 09:00:47;;;;;;;18.70;8.20;;;;;;;25.64;18.72;98934.81;106215;1270;96397;-73
2022/03/30 09:03:20;;;;;;;20.30;8.30;;;;;;;24.33;18.98;98934.46;106149;1270;137529;-73
2022/03/30 09:05:52;;;;;;;15.80;7.80;;;;;;;23.65;19.62;98935.14;106273;1269;108745;-75
2022/03/30 09:08:28;;;;;;;14.90;7.80;;;;;;;22.77;19.92;98940.84;106232;1270;137649;-74
2022/03/30 09:11:00;;;;;;;19.10;9.10;;;;;;;22.02;20.52;98938.19;106265;1270;96472;-73
2022/03/30 09:13:32;;;;;;;13.70;7.50;;;;;;;21.64;20.71;98937.70;106227;1270;96861;-74
2022/03/30 09:16:11;;;;;;;13.50;7.40;;;;;;;21.17;21.08;98940.38;106073;1270;137580;-74
2022/03/30 09:19:03;;;;;;;15.90;8.40;;;;;;;20.63;21.54;98938.15;106251;1270;108022;-73
2022/03/30 09:21:46;;;;;;;20.40;8.30;;;;;;;19.75;21.81;98943.46;106092;1270;137476;-74
2022/03/30 09:24:21;;;;;;;14.20;8.30;;;;;;;18.78;22.38;98944.43;106213;1270;96489;-74
2022/03/30 09:26:54;;;;;;;15.70;8.30;;;;;;;17.80;23.06;98947.45;106124;1270;138980;-74
2022/03/30 09:29:28;;;;;;;18.10;9.10;;;;;;;16.96;23.97;98946.56;106212;1270;110532;-73
2022/03/30 09:32:20;;;;;;;15.50;8.10;;;;;;;16.17;24.53;98946.45;106079;1270;138239;-73
2022/03/30 09:34:55;;;;;;;16.80;7.70;;;;;;;15.42;25.14;98947.45;106167;1270;108095;-73
2022/03/30 09:37:28;;;;;;;17.40;7.70;;;;;;;14.84;25.92;98953.72;107577;1270;136599;-73
2022/03/30 09:40:09;;;;;;;17.70;7.90;;;;;;;14.39;26.61;98954.20;107600;1270;137909;-74
2022/03/30 09:42:43;;;;;;;18.00;8.10;;;;;;;13.93;27.39;98953.85;107834;1269;111160;-72
2022/03/30 09:45:27;;;;;;;18.10;9.00;;;;;;;13.42;28.03;98958.08;106356;1270;137697;-73
2022/03/30 09:48:13;;;;;;;22.20;8.70;;;;;;;13.09;28.74;98954.70;106219;1270;108105;-73
2022/03/30 09:50:50;;;;;;;17.00;7.80;;;;;;;12.90;29.02;98953.63;107711;1270;138086;-73
2022/03/30 09:53:24;;;;;;;20.10;8.40;;;;;;;13.08;29.64;98946.56;107839;1270;94423;-74
2022/03/30 09:56:01;;;;;;;20.00;8.10;;;;;;;13.77;29.25;98948.62;107798;1270;112179;-74
2022/03/30 09:58:36;;;;;;;15.60;8.00;;;;;;;13.82;29.01;98945.49;106419;1270;138492;-73
2022/03/30 10:01:12;;;;;;;17.70;7.20;;;;;;;13.69;29.15;98941.10;106306;1270;108462;-73
2022/03/30 10:03:48;;;;;;;18.50;8.00;;;;;;;13.51;29.10;98942.96;106486;1269;137743;-73
2022/03/30 10:06:22;;;;;;;15.50;6.90;;;;;;;13.22;29.03;98944.30;106280;1270;96599;-73
2022/03/30 10:08:56;;;;;;;15.80;6.70;;;;;;;13.10;29.40;98945.05;106133;1270;137535;-72
2022/03/30 10:11:30;;;;;;;13.60;6.80;;;;;;;13.21;29.49;98941.74;106242;1270;108789;-73
2022/03/30 10:14:05;;;;;;;13.00;6.30;;;;;;;13.17;29.22;98946.74;107235;1270;110341;-72
2022/03/30 10:16:45;;;;;;;19.40;7.70;;;;;;;13.01;29.44;98936.70;106291;1270;137367;-74
2022/03/30 10:19:18;;;;;;;17.40;7.00;;;;;;;13.41;29.55;98936.48;106172;1270;96496;-74
2022/03/30 10:22:01;;;;;;;12.90;6.70;;;;;;;13.82;29.29;98936.04;106148;1270;138262;-74
2022/03/30 10:24:53;;;;;;;12.70;6.30;;;;;;;14.37;28.87;98929.18;106244;1270;108842;-73
2022/03/30 10:27:33;;;;;;;14.20;6.80;;;;;;;15.14;28.39;98932.20;106163;1270;137792;-72
2022/03/30 10:30:07;;;;;;;15.00;7.00;;;;;;;15.72;27.83;98928.50;106140;1270;96563;-73
2022/03/30 10:32:41;;;;;;;13.10;6.90;;;;;;;16.36;27.80;98925.54;107636;1269;137536;-73
2022/03/30 10:35:14;;;;;;;14.30;6.30;;;;;;;16.78;26.73;98922.18;107765;1270;111571;-73
2022/03/30 10:37:57;;;;;;;17.10;7.90;;;;;;;16.59;26.50;98919.05;107828;1270;107779;-73
2022/03/30 10:40:33;;;;;;;14.00;6.70;;;;;;;16.23;26.82;98922.02;107616;1270;137596;-73
2022/03/30 10:43:10;;;;;;;16.20;7.40;;;;;;;15.83;26.89;98916.66;107650;1270;94951;-73
2022/03/30 10:45:48;;;;;;;17.00;8.20;;;;;;;15.41;27.03;98921.81;106092;1270;138358;-72
2022/03/30 10:48:24;;;;;;;12.70;6.80;;;;;;;15.10;27.25;98925.61;106224;1268;111038;-72
2022/03/30 10:50:58;;;;;;;18.90;7.30;;;;;;;14.85;27.48;98922.69;106218;1268;137990;-73
2022/03/30 10:53:42;;;;;;;14.30;6.90;;;;;;;14.55;28.00;98924.67;106088;1271;108790;-75
2022/03/30 10:56:50;;;;;;;16.80;7.70;;;;;;;14.31;28.23;98924.37;107286;1270;96492;-73
2022/03/30 10:59:22;;;;;;;18.30;8.60;;;;;;;14.04;28.70;98927.08;106378;1270;96847;-72
2022/03/30 11:02:16;;;;;;;19.10;7.40;;;;;;;13.78;28.92;98929.11;106304;1271;110775;-75
2022/03/30 11:04:49;;;;;;;12.40;7.80;;;;;;;13.45;29.25;98933.74;106308;1270;137596;-72
2022/03/30 11:07:42;;;;;;;13.20;6.70;;;;;;;13.19;29.68;98932.44;107800;1270;108870;-72
2022/03/30 11:10:22;;;;;;;20.70;7.70;;;;;;;13.11;30.03;98935.55;107678;1270;137446;-73
2022/03/30 11:13:11;;;;;;;15.40;7.50;;;;;;;13.18;30.34;98939.70;107801;1269;94879;-72
2022/03/30 11:16:13;;;;;;;15.90;7.80;;;;;;;13.26;30.32;98938.95;107643;1270;138401;-73
2022/03/30 11:19:02;;;;;;;19.00;8.30;;;;;;;13.44;30.36;98939.45;107912;1269;108459;-72
2022/03/30 11:21:35;;;;;;;12.20;7.40;;;;;;;13.86;30.40;98937.17;107200;1270;137653;-74
2022/03/30 11:24:13;;;;;;;15.10;6.70;;;;;;;14.41;30.03;98929.27;106207;1270;96483;-73
2022/03/30 11:27:22;;;;;;;15.90;7.00;;;;;;;14.78;29.24;98919.35;106355;1270;96486;-72
2022/03/30 11:29:58;;;;;;;11.40;6.10;;;;;;;14.78;28.95;98923.70;106134;1270;113000;-73
2022/03/30 11:33:04;;;;;;;14.50;7.70;;;;;;;14.60;28.70;98924.61;106292;1270;108826;-74
2022/03/30 11:35:42;;;;;;;17.10;6.90;;;;;;;14.22;28.81;98921.27;106317;1269;246209;-74
2022/03/30 11:38:27;;;;;;;16.90;7.70;;;;;;;13.95;28.99;98930.48;107728;1271;94783;-73
2022/03/30 11:41:06;;;;;;;13.20;6.60;;;;;;;13.71;29.17;98931.55;107679;1269;138136;-72
2022/03/30 11:46:28;;;;;;;14.20;7.80;;;;;;;13.65;29.55;98930.05;107746;1269;137676;-72
2022/03/30 11:49:04;;;;;;;14.70;7.40;;;;;;;13.63;29.55;98930.47;106367;1270;107639;-72